Time,TemperatureF,DewpointF,PressureIn,WindDirection,WindDirectionDegrees,WindSpeedMPH,WindSpeedGustMPH,Humidity,HourlyPrecipIn,Conditions,Clouds,dailyrainin,SolarRadiationWatts/m^2,SoftwareType,DateUTC
2014-09-18 00:00:00,45.4,43.2,29.99,WSW,247,0.0,1.2,92,0.00,,,0.00,0.0,WeatherDisplay:10.37,2014-09-18 04:00:00,
2014-09-18 00:05:00,45.2,43.0,29.99,WSW,247,0.0,0.0,92,0.00,,,0.00,0.0,WeatherDisplay:10.37,2014-09-18 04:05:00,
2014-09-18 00:10:00,45.0,42.8,29.99,WSW,247,0.0,1.2,92,0.00,,,0.00,0.0,WeatherDisplay:10.37,2014-09-18 04:10:00,
2014-09-18 00:15:00,44.9,42.7,29.99,WSW,247,0.0,0.0,92,0.00,,,0.00,0.0,WeatherDisplay:10.37,2014-09-18 04:15:00,
2014-09-18 00:20:00,44.8,42.6,29.99,WSW,247,0.0,0.0,92,0.00,,,0.00,0.0,WeatherDisplay:10.37,2014-09-18 04:20:00,
2014-09-18 00:25:00,44.7,42.5,29.99,WSW,247,0.1,1.2,92,0.00,,,0.00,0.0,WeatherDisplay:10.37,2014-09-18 04:25:00,
2014-09-18 00:30:00,44.6,42.4,29.99,WSW,247,0.0,1.2,92,0.00,,,0.00,0.0,WeatherDisplay:10.37,2014-09-18 04:30:00,
2014-09-18 00:35:00,44.5,42.3,29.98,WSW,247,0.0,0.0,92,0.00,,,0.00,0.0,WeatherDisplay:10.37,2014-09-18 04:35:00,
2014-09-18 00:40:00,44.5,42.3,29.98,WSW,247,0.0,0.0,92,0.00,,,0.00,0.0,WeatherDisplay:10.37,2014-09-18 04:40:00,
2014-09-18 00:45:00,44.5,42.6,29.98,WSW,247,0.0,0.0,93,0.00,,,0.00,0.0,WeatherDisplay:10.37,2014-09-18 04:45:00,
2014-09-18 00:50:00,44.4,42.5,29.98,WSW,247,0.0,0.0,93,0.00,,,0.00,0.0,WeatherDisplay:10.37,2014-09-18 04:50:00,
2014-09-18 00:55:00,44.3,42.4,29.98,WSW,247,0.1,0.0,93,0.00,,,0.00,0.0,WeatherDisplay:10.37,2014-09-18 04:55:00,
2014-09-18 00:58:00,44.2,42.0,29.98,WSW,247,0.0,0.0,92,0.00,,,0.00,0.0,WeatherDisplay:10.37,2014-09-18 04:58:00,
2014-09-18 01:03:00,44.2,42.0,29.98,WSW,247,0.0,0.0,92,0.00,,,0.00,0.0,WeatherDisplay:10.37,2014-09-18 05:03:00,
2014-09-18 01:08:00,44.1,41.9,29.98,WSW,247,0.0,0.0,92,0.00,,,0.00,0.0,WeatherDisplay:10.37,2014-09-18 05:08:00,
2014-09-18 01:13:00,43.8,41.6,29.98,WSW,247,0.0,0.0,92,0.00,,,0.00,0.0,WeatherDisplay:10.37,2014-09-18 05:13:00,
2014-09-18 01:18:00,43.7,41.5,29.98,WSW,247,0.0,0.0,92,0.00,,,0.00,0.0,WeatherDisplay:10.37,2014-09-18 05:18:00,
2014-09-18 01:23:00,43.6,41.4,29.98,WSW,247,0.0,0.0,92,0.00,,,0.00,0.0,WeatherDisplay:10.37,2014-09-18 05:23:00,
2014-09-18 01:28:00,43.6,41.7,29.98,WSW,247,0.0,0.0,93,0.00,,,0.00,0.0,WeatherDisplay:10.37,2014-09-18 05:28:00,
2014-09-18 01:33:00,43.6,41.7,29.98,WSW,247,0.0,0.0,93,0.00,,,0.00,0.0,WeatherDisplay:10.37,2014-09-18 05:33:00,
2014-09-18 01:38:00,43.6,41.7,29.98,WSW,247,0.0,0.0,93,0.00,,,0.00,0.0,WeatherDisplay:10.37,2014-09-18 05:38:00,
2014-09-18 01:43:00,43.6,41.7,29.98,WSW,247,0.0,0.0,93,0.00,,,0.00,0.0,WeatherDisplay:10.37,2014-09-18 05:43:00,
2014-09-18 01:48:00,43.5,41.6,29.98,WSW,247,0.0,0.0,93,0.00,,,0.00,0.0,WeatherDisplay:10.37,2014-09-18 05:48:00,
2014-09-18 01:53:00,43.4,41.5,29.98,WSW,247,0.0,0.0,93,0.00,,,0.00,0.0,WeatherDisplay:10.37,2014-09-18 05:53:00,
2014-09-18 01:58:00,43.2,41.3,29.98,WSW,247,0.0,0.0,93,0.00,,,0.00,0.0,WeatherDisplay:10.37,2014-09-18 05:58:00,
2014-09-18 02:03:00,43.2,41.3,29.98,WSW,247,0.0,0.0,93,0.00,,,0.00,0.0,WeatherDisplay:10.37,2014-09-18 06:03:00,
2014-09-18 02:08:00,43.2,41.3,29.98,WSW,247,0.0,0.0,93,0.00,,,0.00,0.0,WeatherDisplay:10.37,2014-09-18 06:08:00,
2014-09-18 02:13:00,43.3,41.4,29.98,WSW,247,0.0,0.0,93,0.00,,,0.00,0.0,WeatherDisplay:10.37,2014-09-18 06:13:00,
2014-09-18 02:18:00,43.3,41.4,29.98,WSW,247,0.0,0.0,93,0.00,,,0.00,0.0,WeatherDisplay:10.37,2014-09-18 06:18:00,
2014-09-18 02:23:00,43.1,41.2,29.98,WSW,247,0.0,0.0,93,0.00,,,0.00,0.0,WeatherDisplay:10.37,2014-09-18 06:23:00,
2014-09-18 02:28:00,42.9,41.0,29.97,WSW,247,0.0,0.0,93,0.00,,,0.00,0.0,WeatherDisplay:10.37,2014-09-18 06:28:00,
2014-09-18 02:33:00,42.8,40.9,29.97,WSW,247,0.0,0.0,93,0.00,,,0.00,0.0,WeatherDisplay:10.37,2014-09-18 06:33:00,
2014-09-18 02:38:00,42.7,40.8,29.97,WSW,247,0.0,0.0,93,0.00,,,0.00,0.0,WeatherDisplay:10.37,2014-09-18 06:38:00,
2014-09-18 02:43:00,42.5,40.6,29.97,WSW,247,0.0,0.0,93,0.00,,,0.00,0.0,WeatherDisplay:10.37,2014-09-18 06:43:00,
2014-09-18 02:48:00,42.5,40.6,29.97,WSW,247,0.0,0.0,93,0.00,,,0.00,0.0,WeatherDisplay:10.37,2014-09-18 06:48:00,
2014-09-18 02:53:00,42.4,40.5,29.97,WSW,247,0.0,0.0,93,0.00,,,0.00,0.0,WeatherDisplay:10.37,2014-09-18 06:53:00,
2014-09-18 02:58:00,42.3,40.4,29.97,WSW,247,0.0,0.0,93,0.00,,,0.00,0.0,WeatherDisplay:10.37,2014-09-18 06:58:00,
2014-09-18 03:03:00,42.1,40.2,29.97,WSW,247,0.0,0.0,93,0.00,,,0.00,0.0,WeatherDisplay:10.37,2014-09-18 07:03:00,
2014-09-18 03:08:00,42.1,40.2,29.97,WSW,247,0.0,0.0,93,0.00,,,0.00,0.0,WeatherDisplay:10.37,2014-09-18 07:08:00,
2014-09-18 03:13:00,42.2,40.3,29.97,WSW,247,0.0,0.0,93,0.00,,,0.00,0.0,WeatherDisplay:10.37,2014-09-18 07:13:00,
2014-09-18 03:18:00,42.2,40.3,29.97,WSW,247,0.0,0.0,93,0.00,,,0.00,0.0,WeatherDisplay:10.37,2014-09-18 07:18:00,
2014-09-18 03:24:00,42.1,40.2,29.97,WSW,247,0.0,0.0,93,0.00,,,0.00,0.0,WeatherDisplay:10.37,2014-09-18 07:24:00,
2014-09-18 03:29:00,42.0,40.1,29.97,WSW,247,0.0,0.0,93,0.00,,,0.00,0.0,WeatherDisplay:10.37,2014-09-18 07:29:00,
2014-09-18 03:34:00,42.0,40.1,29.97,WSW,247,0.0,0.0,93,0.00,,,0.00,0.0,WeatherDisplay:10.37,2014-09-18 07:34:00,
2014-09-18 03:39:00,41.9,40.0,29.97,WSW,247,0.0,0.0,93,0.00,,,0.00,0.0,WeatherDisplay:10.37,2014-09-18 07:39:00,
2014-09-18 03:44:00,41.8,39.9,29.97,WSW,247,0.0,0.0,93,0.00,,,0.00,0.0,WeatherDisplay:10.37,2014-09-18 07:44:00,
2014-09-18 03:48:00,41.7,39.8,29.97,WSW,247,0.0,0.0,93,0.00,,,0.00,0.0,WeatherDisplay:10.37,2014-09-18 07:48:00,
2014-09-18 03:53:00,41.7,39.8,29.98,WSW,247,0.0,0.0,93,0.00,,,0.00,0.0,WeatherDisplay:10.37,2014-09-18 07:53:00,
2014-09-18 03:58:00,41.7,39.8,29.98,WSW,247,0.0,1.0,93,0.00,,,0.00,0.0,WeatherDisplay:10.37,2014-09-18 07:58:00,
2014-09-18 04:03:00,42.0,40.1,29.98,WSW,247,0.0,1.2,93,0.00,,,0.00,0.0,WeatherDisplay:10.37,2014-09-18 08:03:00,
2014-09-18 04:08:00,42.0,40.1,29.98,WSW,247,0.1,0.0,93,0.00,,,0.00,0.0,WeatherDisplay:10.37,2014-09-18 08:08:00,
2014-09-18 04:13:00,41.9,40.0,29.97,WSW,247,0.9,2.3,93,0.00,,,0.00,0.0,WeatherDisplay:10.37,2014-09-18 08:13:00,
2014-09-18 04:18:00,41.6,39.7,29.98,WSW,247,0.0,0.0,93,0.00,,,0.00,0.0,WeatherDisplay:10.37,2014-09-18 08:18:00,
2014-09-18 04:23:00,41.8,39.9,29.98,WSW,247,0.0,0.0,93,0.00,,,0.00,0.0,WeatherDisplay:10.37,2014-09-18 08:23:00,
2014-09-18 04:28:00,41.9,40.3,29.98,WSW,247,0.0,0.0,94,0.00,,,0.00,0.0,WeatherDisplay:10.37,2014-09-18 08:28:00,
2014-09-18 04:33:00,41.7,39.8,29.98,WSW,247,0.0,0.0,93,0.00,,,0.00,0.0,WeatherDisplay:10.37,2014-09-18 08:33:00,
2014-09-18 04:38:00,41.4,39.5,29.98,WSW,247,0.0,0.0,93,0.00,,,0.00,0.0,WeatherDisplay:10.37,2014-09-18 08:38:00,
2014-09-18 04:43:00,41.3,39.4,29.98,WSW,247,0.0,0.0,93,0.00,,,0.00,0.0,WeatherDisplay:10.37,2014-09-18 08:43:00,
2014-09-18 04:48:00,41.2,39.3,29.98,WSW,247,0.0,1.0,93,0.00,,,0.00,0.0,WeatherDisplay:10.37,2014-09-18 08:48:00,
2014-09-18 04:53:00,41.2,39.3,29.98,WSW,247,0.0,0.0,93,0.00,,,0.00,0.0,WeatherDisplay:10.37,2014-09-18 08:53:00,
2014-09-18 04:58:00,41.2,39.3,29.98,WSW,247,0.0,0.0,93,0.00,,,0.00,0.0,WeatherDisplay:10.37,2014-09-18 08:58:00,
2014-09-18 05:03:00,41.4,39.5,29.98,WSW,247,0.0,0.0,93,0.00,,,0.00,0.0,WeatherDisplay:10.37,2014-09-18 09:03:00,
2014-09-18 05:08:00,41.5,39.6,29.98,WSW,247,0.0,1.2,93,0.00,,,0.00,0.0,WeatherDisplay:10.37,2014-09-18 09:08:00,
2014-09-18 05:13:00,41.3,39.4,29.98,WSW,247,0.0,0.0,93,0.00,,,0.00,0.0,WeatherDisplay:10.37,2014-09-18 09:13:00,
2014-09-18 05:18:00,41.1,39.2,29.98,WSW,247,0.0,0.0,93,0.00,,,0.00,0.0,WeatherDisplay:10.37,2014-09-18 09:18:00,
2014-09-18 05:23:00,40.9,39.0,29.99,WSW,247,0.0,0.0,93,0.00,,,0.00,0.0,WeatherDisplay:10.37,2014-09-18 09:23:00,
2014-09-18 05:28:00,40.8,38.9,29.99,WSW,247,0.1,1.0,93,0.00,,,0.00,0.0,WeatherDisplay:10.37,2014-09-18 09:28:00,
2014-09-18 05:33:00,40.7,38.8,29.99,WSW,247,0.0,1.2,93,0.00,,,0.00,0.0,WeatherDisplay:10.37,2014-09-18 09:33:00,
2014-09-18 05:38:00,40.7,38.8,29.99,WSW,247,0.0,0.0,93,0.00,,,0.00,0.0,WeatherDisplay:10.37,2014-09-18 09:38:00,
2014-09-18 05:43:00,40.7,38.8,29.99,WSW,247,0.0,0.0,93,0.00,,,0.00,0.0,WeatherDisplay:10.37,2014-09-18 09:43:00,
2014-09-18 05:48:00,40.7,38.8,29.99,WSW,247,0.0,0.0,93,0.00,,,0.00,0.0,WeatherDisplay:10.37,2014-09-18 09:48:00,
2014-09-18 05:53:00,40.7,38.8,29.99,WSW,247,0.0,0.0,93,0.00,,,0.00,0.0,WeatherDisplay:10.37,2014-09-18 09:53:00,
2014-09-18 05:58:00,40.9,39.0,29.99,WSW,247,0.0,1.2,93,0.00,,,0.00,0.0,WeatherDisplay:10.37,2014-09-18 09:58:00,
2014-09-18 06:03:00,41.0,39.4,29.99,WSW,247,0.0,0.0,94,0.00,,,0.00,0.0,WeatherDisplay:10.37,2014-09-18 10:03:00,
2014-09-18 06:08:00,40.9,39.0,29.99,WSW,247,0.0,0.0,93,0.00,,,0.00,0.0,WeatherDisplay:10.37,2014-09-18 10:08:00,
2014-09-18 06:13:00,40.7,38.8,29.99,WSW,247,0.0,1.2,93,0.00,,,0.00,0.0,WeatherDisplay:10.37,2014-09-18 10:13:00,
2014-09-18 06:18:00,40.5,38.6,30.00,WSW,247,0.0,0.0,93,0.00,,,0.00,0.0,WeatherDisplay:10.37,2014-09-18 10:18:00,
2014-09-18 06:23:00,40.4,38.5,30.00,WSW,247,0.0,0.0,93,0.00,,,0.00,0.0,WeatherDisplay:10.37,2014-09-18 10:23:00,
2014-09-18 06:25:00,40.4,38.5,30.00,WSW,247,0.1,0.0,93,0.00,,,0.00,0.0,WeatherDisplay:10.37,2014-09-18 10:25:00,
2014-09-18 06:30:00,40.4,38.5,30.00,WSW,247,0.0,1.2,93,0.00,,,0.00,0.0,WeatherDisplay:10.37,2014-09-18 10:30:00,
2014-09-18 06:35:00,40.5,38.6,30.00,WSW,247,0.3,0.0,93,0.00,,,0.00,0.0,WeatherDisplay:10.37,2014-09-18 10:35:00,
2014-09-18 06:40:00,40.5,38.6,30.00,WSW,247,0.0,0.0,93,0.00,,,0.00,0.0,WeatherDisplay:10.37,2014-09-18 10:40:00,
2014-09-18 06:45:00,40.4,38.5,30.00,WSW,247,0.0,0.0,93,0.00,,,0.00,7.8,WeatherDisplay:10.37,2014-09-18 10:45:00,
2014-09-18 06:50:00,40.2,38.3,30.00,WSW,247,0.0,0.0,93,0.00,,,0.00,10.1,WeatherDisplay:10.37,2014-09-18 10:50:00,
2014-09-18 06:53:00,40.2,38.3,30.01,WSW,247,0.0,0.0,93,0.00,BKN,,0.00,12.3,WeatherDisplay:10.37,2014-09-18 10:53:00,
2014-09-18 06:58:00,40.3,38.4,30.01,WSW,247,0.0,1.2,93,0.00,BKN,,0.00,25.8,WeatherDisplay:10.37,2014-09-18 10:58:00,
2014-09-18 07:03:00,40.6,39.0,30.01,WSW,247,0.0,0.0,94,0.00,BKN,,0.00,35.8,WeatherDisplay:10.37,2014-09-18 11:03:00,
2014-09-18 07:08:00,40.9,39.3,30.01,WSW,247,0.0,0.0,94,0.00,BKN,,0.00,44.8,WeatherDisplay:10.37,2014-09-18 11:08:00,
2014-09-18 07:13:00,41.3,39.7,30.01,WSW,247,0.0,0.0,94,0.00,BKN,,0.00,54.9,WeatherDisplay:10.37,2014-09-18 11:13:00,
2014-09-18 07:18:00,41.7,40.1,30.01,WSW,247,0.0,0.0,94,0.00,BKN,,0.00,67.2,WeatherDisplay:10.37,2014-09-18 11:18:00,